createdAt,value
2018-02-17T00:01:38.584Z,64.63
2018-02-17T00:04:08.081Z,64.67
2018-02-17T00:06:38.640Z,64.70
2018-02-17T00:09:10.558Z,64.79
2018-02-17T00:11:42.730Z,65.14
2018-02-17T00:14:13.674Z,65.27
2018-02-17T00:16:44.134Z,65.51
2018-02-17T00:19:14.132Z,65.68
2018-02-17T00:21:43.447Z,66.25
2018-02-17T00:24:15.152Z,66.91
2018-02-17T00:26:45.412Z,66.55
2018-02-17T00:29:14.764Z,66.56
2018-02-17T00:31:44.031Z,66.79
2018-02-17T00:34:17.211Z,66.85
2018-02-17T00:36:47.227Z,67.08
2018-02-17T00:39:19.093Z,67.26
2018-02-17T00:41:49.711Z,67.40
2018-02-17T00:44:20.357Z,67.52
2018-02-17T00:46:49.668Z,67.73
2018-02-17T00:49:21.203Z,67.71
2018-02-17T00:51:52.165Z,67.93
2018-02-17T00:57:41.769Z,67.69
2018-02-17T01:00:28.376Z,67.72
2018-02-17T01:02:59.997Z,67.65
2018-02-17T01:05:37.540Z,67.35
2018-02-17T01:08:10.530Z,67.36
2018-02-17T01:10:40.107Z,67.26
2018-02-17T01:13:15.631Z,67.28
2018-02-17T01:15:47.130Z,67.07
2018-02-17T01:18:22.450Z,67.42
2018-02-17T01:44:20.367Z,66.70
2018-02-17T01:46:52.228Z,66.54
2018-02-17T01:49:21.896Z,66.86
2018-02-17T01:51:52.134Z,67.15
2018-02-17T01:54:32.073Z,67.28
2018-02-17T01:57:02.450Z,67.21
2018-02-17T01:59:32.660Z,67.49
2018-02-17T02:02:03.068Z,67.36
2018-02-17T02:04:33.859Z,67.46
2018-02-17T02:07:04.815Z,67.71
2018-02-17T02:09:35.806Z,67.65
2018-02-17T02:12:13.237Z,67.81
2018-02-17T02:14:45.241Z,67.77
2018-02-17T02:17:19.089Z,67.96
2018-02-17T02:19:51.270Z,67.81
2018-02-17T02:22:23.110Z,67.49
2018-02-17T02:24:54.414Z,67.82
2018-02-17T02:27:24.429Z,67.70
2018-02-17T02:29:54.317Z,67.79
2018-02-17T02:32:24.097Z,67.99
2018-02-17T02:34:54.032Z,67.95
2018-02-17T02:37:23.652Z,68.00
2018-02-17T02:39:55.815Z,68.12
2018-02-17T02:42:25.087Z,67.85
2018-02-17T02:44:55.123Z,68.12
2018-02-17T02:47:24.340Z,67.97
2018-02-17T02:49:53.827Z,67.93
2018-02-17T02:52:25.228Z,68.12
2018-02-17T02:54:56.717Z,68.09
2018-02-17T02:57:27.627Z,67.86
2018-02-17T03:00:00.437Z,67.64
2018-02-17T03:02:31.108Z,67.44
2018-02-17T03:05:01.630Z,67.60
2018-02-17T03:07:31.621Z,67.29
2018-02-17T03:10:03.882Z,67.63
2018-02-17T03:12:33.686Z,67.55
2018-02-17T03:15:07.756Z,67.64
2018-02-17T03:17:37.925Z,67.59
2018-02-17T03:20:13.725Z,67.38
2018-02-17T03:22:44.244Z,67.34
2018-02-17T03:25:13.846Z,67.47
2018-02-17T03:27:45.573Z,67.50
2018-02-17T03:30:16.582Z,67.12
2018-02-17T03:32:46.755Z,67.26
2018-02-17T03:35:16.850Z,67.23
2018-02-17T03:37:46.275Z,67.57
2018-02-17T03:40:15.625Z,67.45
2018-02-17T03:42:47.211Z,67.54
2018-02-17T03:45:16.682Z,67.56
2018-02-17T03:47:46.443Z,67.43
2018-02-17T03:50:15.671Z,67.63
2018-02-17T03:52:45.216Z,67.93
2018-02-17T03:55:15.898Z,67.75
2018-02-17T03:57:45.148Z,68.47
2018-02-17T04:00:15.394Z,68.15
2018-02-17T04:02:45.535Z,68.00
2018-02-17T04:05:17.134Z,68.09
2018-02-17T04:07:47.419Z,68.11
2018-02-17T04:10:17.165Z,68.09
2018-02-17T04:12:46.413Z,68.19
2018-02-17T04:15:16.007Z,68.28
2018-02-17T04:17:45.585Z,68.69
2018-02-17T04:20:14.799Z,68.73
2018-02-17T04:22:48.834Z,68.99
2018-02-17T04:25:31.190Z,69.02
2018-02-17T04:28:01.422Z,69.02
2018-02-17T04:30:31.635Z,69.24
2018-02-17T04:33:05.218Z,69.45
2018-02-17T04:35:37.595Z,69.79
2018-02-17T04:38:12.142Z,69.71
2018-02-17T04:40:43.988Z,69.80
2018-02-17T04:43:25.042Z,69.66
2018-02-17T04:45:59.965Z,69.80
2018-02-17T04:48:35.342Z,69.57
2018-02-17T04:51:11.246Z,69.28
2018-02-17T04:53:40.602Z,69.44
2018-02-17T04:56:12.761Z,69.48
2018-02-17T04:58:42.526Z,69.21
2018-02-17T05:01:12.807Z,69.29
2018-02-17T05:03:42.580Z,68.95
2018-02-17T05:06:15.833Z,68.56
2018-02-17T05:08:46.075Z,68.80
2018-02-17T05:11:18.358Z,68.69
2018-02-17T05:13:47.731Z,68.85
2018-02-17T05:16:17.147Z,68.94
2018-02-17T05:18:47.229Z,68.95
2018-02-17T05:21:16.720Z,69.62
2018-02-17T05:23:48.909Z,69.90
2018-02-17T05:26:20.355Z,70.10
2018-02-17T05:28:49.968Z,70.30
2018-02-17T05:31:19.626Z,70.46
2018-02-17T05:33:51.452Z,70.37
2018-02-17T05:36:26.491Z,70.28
2018-02-17T05:38:55.990Z,69.96
2018-02-17T05:41:26.084Z,69.77
2018-02-17T05:43:56.063Z,69.69
2018-02-17T05:46:26.150Z,69.81
2018-02-17T05:48:58.049Z,69.39
2018-02-17T05:51:30.015Z,69.17
2018-02-17T05:53:59.355Z,68.91
2018-02-17T05:56:29.179Z,68.49
2018-02-17T05:58:58.667Z,68.52
2018-02-17T06:01:27.922Z,68.48
2018-02-17T06:03:57.599Z,68.37
2018-02-17T06:06:27.193Z,68.18
2018-02-17T06:08:58.278Z,68.09
2018-02-17T06:11:29.264Z,67.94
2018-02-17T06:13:58.569Z,67.83
2018-02-17T06:16:28.888Z,67.81
2018-02-17T06:18:58.677Z,67.63
2018-02-17T06:21:28.883Z,67.03
2018-02-17T06:23:58.377Z,67.33
2018-02-17T06:26:28.165Z,67.18
2018-02-17T06:28:58.248Z,66.74
2018-02-17T06:31:38.116Z,66.56
2018-02-17T06:34:13.525Z,66.68
2018-02-17T06:36:42.957Z,66.81
2018-02-17T06:39:15.935Z,66.72
2018-02-17T06:41:45.736Z,66.55
2018-02-17T06:44:15.277Z,66.38
2018-02-17T06:46:44.659Z,66.47
2018-02-17T06:49:16.008Z,66.82
2018-02-17T06:51:45.873Z,66.60
2018-02-17T06:54:25.512Z,67.12
2018-02-17T06:56:55.642Z,67.32
2018-02-17T06:59:36.570Z,67.86
2018-02-17T07:02:20.411Z,68.36
2018-02-17T07:04:54.238Z,69.37
2018-02-17T07:07:23.662Z,69.64
2018-02-17T07:09:52.857Z,69.79
2018-02-17T07:12:22.860Z,70.04
2018-02-17T07:14:54.018Z,70.11
2018-02-17T07:17:25.481Z,70.44
2018-02-17T07:19:57.168Z,70.45
2018-02-17T07:22:29.670Z,70.53
2018-02-17T07:24:59.821Z,70.57
2018-02-17T07:27:29.667Z,70.51
2018-02-17T07:30:03.555Z,71.35
2018-02-17T07:32:34.938Z,71.68
2018-02-17T07:35:10.172Z,72.02
2018-02-17T07:37:40.381Z,72.20
2018-02-17T07:40:09.665Z,72.26
2018-02-17T07:42:39.878Z,72.44
2018-02-17T07:45:12.484Z,72.42
2018-02-17T07:47:42.267Z,72.55
2018-02-17T07:50:14.145Z,72.64
2018-02-17T07:52:45.434Z,72.98
2018-02-17T07:55:16.925Z,73.03
2018-02-17T07:57:48.012Z,72.71
2018-02-17T08:00:18.234Z,72.76
2018-02-17T08:02:47.954Z,72.58
2018-02-17T08:05:17.479Z,72.92
2018-02-17T08:07:47.251Z,73.73
2018-02-17T08:10:23.464Z,73.80
2018-02-17T08:12:53.253Z,74.35
2018-02-17T08:15:23.064Z,74.48
2018-02-17T08:17:52.642Z,74.54
2018-02-17T08:20:23.639Z,74.69
2018-02-17T08:22:54.688Z,74.21
2018-02-17T08:25:26.267Z,73.74
2018-02-17T08:27:58.065Z,73.55
2018-02-17T08:30:28.923Z,73.24
2018-02-17T08:33:00.151Z,73.36
2018-02-17T08:35:31.002Z,73.11
2018-02-17T08:38:01.621Z,73.29
2018-02-17T08:40:31.575Z,72.99
2018-02-17T08:43:00.803Z,72.76
2018-02-17T08:45:32.065Z,72.33
2018-02-17T08:48:06.316Z,72.18
2018-02-17T08:50:37.220Z,71.56
2018-02-17T08:53:15.581Z,71.50
2018-02-17T08:55:45.159Z,71.56
2018-02-17T08:58:25.773Z,71.29
2018-02-17T09:01:20.047Z,71.02
2018-02-17T09:06:49.038Z,71.05
2018-02-17T09:09:48.728Z,70.48
2018-02-17T09:12:42.808Z,70.35
2018-02-17T09:15:28.813Z,70.78
2018-02-17T09:21:25.049Z,70.17
2018-02-17T09:24:20.056Z,69.27
2018-02-17T09:26:50.318Z,69.01
2018-02-17T09:29:21.531Z,69.31
2018-02-17T09:31:51.002Z,68.93
2018-02-17T09:34:22.070Z,68.81
2018-02-17T09:36:52.479Z,68.35
2018-02-17T09:39:21.901Z,68.71
2018-02-17T09:41:52.652Z,69.26
2018-02-17T09:44:21.976Z,68.64
2018-02-17T09:46:53.384Z,69.32
2018-02-17T09:49:24.760Z,68.86
2018-02-17T09:54:46.665Z,68.79
2018-02-17T09:57:18.021Z,68.88
2018-02-17T09:59:48.267Z,69.38
2018-02-17T10:02:19.228Z,68.93
2018-02-17T10:07:16.748Z,70.14
2018-02-17T10:09:46.462Z,69.87
2018-02-17T10:12:19.563Z,69.56
2018-02-17T10:14:50.383Z,69.86
2018-02-17T10:17:19.675Z,70.13
2018-02-17T10:19:49.175Z,70.39
2018-02-17T10:22:18.723Z,70.31
2018-02-17T10:24:48.586Z,69.91
2018-02-17T10:27:33.373Z,69.90
2018-02-17T10:30:06.689Z,70.53
2018-02-17T10:32:37.907Z,70.93
2018-02-17T10:35:11.414Z,70.46
2018-02-17T10:37:47.549Z,70.77
2018-02-17T10:40:18.794Z,71.37
2018-02-17T10:42:48.194Z,71.37
2018-02-17T10:45:17.627Z,71.62
2018-02-17T10:47:47.645Z,70.78
2018-02-17T10:50:19.766Z,70.92
2018-02-17T10:52:49.362Z,71.06
2018-02-17T10:55:19.933Z,71.34
2018-02-17T10:57:49.298Z,71.76
2018-02-17T11:00:27.460Z,72.09
2018-02-17T11:02:57.454Z,72.25
2018-02-17T11:05:28.311Z,72.93
2018-02-17T11:07:59.854Z,72.26
2018-02-17T11:10:32.166Z,72.26
2018-02-17T11:13:07.942Z,72.80
2018-02-17T11:15:37.557Z,72.77
2018-02-17T11:18:07.459Z,73.13
2018-02-17T11:20:37.442Z,73.23
2018-02-17T11:23:08.885Z,73.29
2018-02-17T11:25:38.363Z,73.52
2018-02-17T11:28:11.870Z,74.36
2018-02-17T11:30:41.502Z,74.57
2018-02-17T11:33:15.047Z,73.33
2018-02-17T11:35:44.839Z,73.14
2018-02-17T11:38:14.575Z,74.20
2018-02-17T11:40:45.584Z,73.91
2018-02-17T11:43:21.569Z,74.23
2018-02-17T11:45:56.357Z,73.80
2018-02-17T11:48:28.984Z,74.16
2018-02-17T11:51:00.663Z,74.91
2018-02-17T11:53:31.066Z,74.50
2018-02-17T11:56:04.654Z,74.69
2018-02-17T11:58:34.820Z,74.30
2018-02-17T12:01:13.285Z,73.91
2018-02-17T12:03:44.156Z,73.62
2018-02-17T12:06:13.403Z,73.84
2018-02-17T12:08:42.654Z,73.44
2018-02-17T12:11:12.417Z,74.53
2018-02-17T12:13:42.755Z,73.93
2018-02-17T12:16:14.650Z,74.55
2018-02-17T12:18:47.952Z,74.56
2018-02-17T12:21:25.121Z,73.52
2018-02-17T12:23:56.671Z,74.59
2018-02-17T12:26:29.218Z,73.82
2018-02-17T12:28:58.708Z,74.21
2018-02-17T12:31:28.185Z,73.60
2018-02-17T12:33:58.621Z,74.25
2018-02-17T12:36:29.053Z,74.42
2018-02-17T12:38:58.974Z,74.63
2018-02-17T12:41:28.640Z,73.92
2018-02-17T12:44:03.647Z,72.73
2018-02-17T12:46:32.938Z,71.88
2018-02-17T12:49:03.660Z,71.31
2018-02-17T12:51:35.759Z,71.29
2018-02-17T12:54:07.791Z,71.20
2018-02-17T12:56:40.554Z,71.51
2018-02-17T12:59:10.079Z,71.37
2018-02-17T13:01:41.420Z,71.16
2018-02-17T13:04:13.907Z,70.33
2018-02-17T13:06:43.322Z,70.22
2018-02-17T13:09:13.703Z,71.44
2018-02-17T13:11:46.007Z,71.75
2018-02-17T13:14:17.248Z,69.82
2018-02-17T13:16:48.846Z,70.79
2018-02-17T13:19:21.131Z,70.44
2018-02-17T13:21:50.510Z,71.45
2018-02-17T13:24:28.533Z,69.17
2018-02-17T13:27:06.107Z,69.22
2018-02-17T13:29:38.206Z,71.06
2018-02-17T13:32:08.515Z,71.29
2018-02-17T13:34:37.914Z,71.71
2018-02-17T13:37:10.078Z,71.54
2018-02-17T13:39:40.139Z,72.13
2018-02-17T13:42:15.186Z,70.54
2018-02-17T13:44:45.410Z,71.38
2018-02-17T13:47:14.847Z,71.08
2018-02-17T13:49:44.102Z,71.52
2018-02-17T13:52:14.331Z,70.75
2018-02-17T13:54:43.823Z,70.42
2018-02-17T13:57:13.191Z,71.58
2018-02-17T13:59:45.695Z,70.85
2018-02-17T14:02:18.902Z,71.73
2018-02-17T14:04:51.394Z,70.56
2018-02-17T14:07:21.883Z,71.70
2018-02-17T14:09:52.069Z,71.30
2018-02-17T14:12:23.287Z,72.23
2018-02-17T14:14:53.794Z,72.97
2018-02-17T14:17:33.630Z,72.70
2018-02-17T14:20:06.892Z,72.76
2018-02-17T14:22:37.690Z,72.53
2018-02-17T14:25:08.334Z,72.87
2018-02-17T14:27:38.933Z,72.41
2018-02-17T14:30:08.204Z,72.89
2018-02-17T14:32:37.554Z,72.97
2018-02-17T14:35:06.835Z,73.95
2018-02-17T14:37:36.250Z,72.80
2018-02-17T14:40:11.592Z,72.67
2018-02-17T14:42:41.538Z,74.08
2018-02-17T14:45:12.671Z,73.56
2018-02-17T14:47:43.363Z,73.92
2018-02-17T14:50:23.252Z,73.94
2018-02-17T14:52:53.539Z,74.03
2018-02-17T14:55:22.872Z,73.89
2018-02-17T14:57:52.537Z,73.76
2018-02-17T15:00:21.941Z,73.35
2018-02-17T15:02:51.352Z,72.36
2018-02-17T15:05:21.046Z,73.13
2018-02-17T15:07:52.476Z,72.59
2018-02-17T15:10:26.314Z,72.45
2018-02-17T15:12:59.320Z,71.99
2018-02-17T15:15:33.569Z,71.74
2018-02-17T15:18:07.212Z,70.92
2018-02-17T15:20:37.794Z,71.40
2018-02-17T15:23:07.884Z,71.37
2018-02-17T15:25:39.433Z,71.36
2018-02-17T15:28:08.891Z,71.93
2018-02-17T15:30:38.455Z,71.83
2018-02-17T15:33:07.718Z,71.74
2018-02-17T15:35:37.252Z,71.65
2018-02-17T15:38:07.639Z,69.84
2018-02-17T15:40:37.353Z,70.80
2018-02-17T15:43:08.369Z,70.63
2018-02-17T15:45:37.571Z,70.90
2018-02-17T15:48:08.329Z,70.77
2018-02-17T15:50:38.254Z,69.79
2018-02-17T15:53:13.857Z,69.12
2018-02-17T15:55:44.961Z,67.99
2018-02-17T15:58:15.326Z,68.52
2018-02-17T16:00:45.972Z,67.26
2018-02-17T16:03:18.158Z,67.83
2018-02-17T16:05:47.971Z,68.82
2018-02-17T16:08:17.613Z,69.08
2018-02-17T16:10:48.267Z,69.11
2018-02-17T16:13:18.735Z,69.28
2018-02-17T16:15:49.307Z,69.22
2018-02-17T16:18:18.515Z,69.01
2018-02-17T16:20:49.198Z,68.45
2018-02-17T16:23:20.694Z,67.96
2018-02-17T16:25:49.972Z,67.35
2018-02-17T16:28:19.410Z,67.94
2018-02-17T16:30:49.420Z,67.92
2018-02-17T16:33:22.571Z,68.20
2018-02-17T16:35:56.363Z,67.58
2018-02-17T16:38:31.516Z,67.72
2018-02-17T16:41:02.820Z,67.59
2018-02-17T16:43:33.743Z,67.92
2018-02-17T16:46:04.942Z,66.84
2018-02-17T16:48:35.138Z,66.30
2018-02-17T16:51:06.518Z,67.66
2018-02-17T16:53:37.707Z,68.15
2018-02-17T16:56:07.222Z,67.24
2018-02-17T16:58:38.826Z,66.55
2018-02-17T17:01:08.145Z,66.98
2018-02-17T17:03:39.074Z,68.04
2018-02-17T17:06:08.992Z,68.68
2018-02-17T17:08:41.055Z,68.73
2018-02-17T17:11:11.372Z,68.71
2018-02-17T17:13:42.127Z,68.54
2018-02-17T17:16:14.691Z,68.05
2018-02-17T17:18:44.990Z,68.30
2018-02-17T17:21:15.212Z,68.21
2018-02-17T17:23:46.845Z,68.43
2018-02-17T17:26:16.690Z,68.24
2018-02-17T17:28:45.906Z,67.22
2018-02-17T17:31:15.282Z,67.33
2018-02-17T17:33:44.861Z,67.97
2018-02-17T17:36:14.260Z,68.39
2018-02-17T17:38:47.780Z,67.59
2018-02-17T17:41:18.545Z,67.59
2018-02-17T17:43:49.164Z,68.03
2018-02-17T17:46:20.132Z,68.22
2018-02-17T17:48:50.380Z,67.96
2018-02-17T17:51:23.051Z,68.71
2018-02-17T17:53:52.311Z,68.65
2018-02-17T17:56:23.726Z,68.81
2018-02-17T17:59:01.189Z,68.56
2018-02-17T18:01:32.716Z,67.85
2018-02-17T18:04:04.658Z,67.47
2018-02-17T18:06:35.663Z,67.94
2018-02-17T18:09:07.099Z,68.15
2018-02-17T18:11:38.666Z,67.93
2018-02-17T18:14:10.750Z,68.39
2018-02-17T18:19:15.847Z,68.04
2018-02-17T18:21:46.845Z,67.76
2018-02-17T18:24:16.963Z,67.70
2018-02-17T18:26:46.461Z,67.68
2018-02-17T18:29:20.826Z,68.40
2018-02-17T18:31:53.589Z,67.76
2018-02-17T18:34:22.923Z,67.67
2018-02-17T18:36:52.763Z,68.56
2018-02-17T18:39:24.507Z,68.54
2018-02-17T18:41:55.457Z,68.39
2018-02-17T18:44:25.878Z,68.52
2018-02-17T18:46:56.125Z,68.37
2018-02-17T18:49:25.818Z,68.34
2018-02-17T18:51:56.487Z,68.38
2018-02-17T18:54:25.935Z,68.46
2018-02-17T18:59:18.970Z,68.41
2018-02-17T19:01:48.570Z,68.51
2018-02-17T19:04:18.028Z,68.40
2018-02-17T19:06:50.104Z,68.19
2018-02-17T19:09:21.559Z,68.16
2018-02-17T19:11:51.782Z,67.81
2018-02-17T19:14:22.055Z,68.05
2018-02-17T19:16:51.446Z,68.43
2018-02-17T19:19:20.648Z,67.83
2018-02-17T19:21:54.352Z,67.96
2018-02-17T19:24:25.586Z,67.91
2018-02-17T19:26:54.971Z,68.24
2018-02-17T19:29:24.362Z,68.24
2018-02-17T19:31:53.651Z,67.75
2018-02-17T19:34:23.594Z,67.68
2018-02-17T19:36:53.201Z,68.05
2018-02-17T19:39:24.618Z,68.04
2018-02-17T19:41:56.240Z,68.09
2018-02-17T19:44:26.935Z,68.00
2018-02-17T19:46:58.207Z,67.90
2018-02-17T19:49:29.374Z,68.16
2018-02-17T19:52:01.370Z,68.39
2018-02-17T19:54:30.737Z,68.12
2018-02-17T19:57:01.017Z,68.42
2018-02-17T19:59:45.287Z,67.99
2018-02-17T20:02:17.361Z,67.76
2018-02-17T20:04:49.959Z,67.59
2018-02-17T20:07:19.178Z,67.99
2018-02-17T20:09:49.428Z,68.33
2018-02-17T20:12:19.129Z,68.84
2018-02-17T20:14:49.035Z,68.41
2018-02-17T20:17:25.213Z,68.42
2018-02-17T20:19:55.097Z,68.55
2018-02-17T20:22:26.443Z,68.07
2018-02-17T20:24:55.907Z,68.30
2018-02-17T20:27:25.396Z,67.94
2018-02-17T20:29:57.878Z,67.95
2018-02-17T20:32:30.367Z,67.84
2018-02-17T20:34:59.775Z,67.67
2018-02-17T20:37:30.867Z,67.60
2018-02-17T20:40:11.074Z,67.33
2018-02-17T20:49:22.684Z,67.96
2018-02-17T20:55:03.740Z,68.30
2018-02-17T20:57:32.979Z,68.75
2018-02-17T21:00:03.362Z,68.68
2018-02-17T21:02:32.652Z,68.45
2018-02-17T21:05:02.295Z,68.81
2018-02-17T21:07:32.666Z,68.81
2018-02-17T21:10:03.144Z,69.31
2018-02-17T21:12:33.559Z,69.21
2018-02-17T21:15:05.222Z,68.53
2018-02-17T21:17:35.382Z,68.78
2018-02-17T21:20:06.000Z,68.89
2018-02-17T21:22:36.252Z,69.36
2018-02-17T21:25:05.572Z,69.35
2018-02-17T21:27:35.199Z,69.48
2018-02-17T21:30:06.006Z,69.77
2018-02-17T21:32:35.436Z,69.68
2018-02-17T21:35:05.627Z,70.10
2018-02-17T21:37:35.576Z,69.99
2018-02-17T21:40:05.577Z,69.95
2018-02-17T21:42:34.842Z,70.11
2018-02-17T21:45:05.081Z,70.32
2018-02-17T21:47:35.539Z,69.89
2018-02-17T21:50:05.594Z,69.82
2018-02-17T21:52:35.803Z,69.72
2018-02-17T21:55:05.925Z,70.66
2018-02-17T21:57:35.567Z,70.23
2018-02-17T22:00:07.100Z,70.26
2018-02-17T22:02:36.540Z,69.86
2018-02-17T22:05:05.899Z,70.03
2018-02-17T22:07:35.517Z,70.33
2018-02-17T22:10:05.575Z,70.34
2018-02-17T22:12:35.963Z,70.63
2018-02-17T22:15:05.812Z,70.39
2018-02-17T22:17:35.052Z,70.36
2018-02-17T22:20:06.896Z,70.21
2018-02-17T22:22:36.635Z,70.41
2018-02-17T22:25:05.926Z,70.30
2018-02-17T22:27:35.221Z,70.27
2018-02-17T22:30:06.158Z,70.47
2018-02-17T22:32:35.510Z,70.44
2018-02-17T22:35:05.030Z,70.54
2018-02-17T22:37:35.450Z,70.68
2018-02-17T22:40:05.524Z,70.51
2018-02-17T22:42:34.928Z,70.52
2018-02-17T22:45:04.975Z,70.20
2018-02-17T22:47:34.524Z,70.23
2018-02-17T22:50:04.568Z,70.39
2018-02-17T22:52:34.318Z,70.39
2018-02-17T22:55:03.936Z,70.57
2018-02-17T22:57:33.436Z,70.68
2018-02-17T23:00:04.923Z,70.48
2018-02-17T23:02:35.027Z,70.52
2018-02-17T23:05:04.865Z,70.85
2018-02-17T23:07:35.796Z,70.96
2018-02-17T23:10:06.518Z,71.15
2018-02-17T23:12:35.958Z,71.21
2018-02-17T23:15:06.041Z,71.40
2018-02-17T23:17:35.363Z,71.55
2018-02-17T23:20:06.443Z,71.66
2018-02-17T23:22:36.364Z,71.70
2018-02-17T23:25:05.804Z,71.85
2018-02-17T23:27:35.255Z,71.82
2018-02-17T23:30:06.174Z,71.79
2018-02-17T23:32:35.496Z,71.78
2018-02-17T23:35:05.011Z,71.90
2018-02-17T23:37:34.807Z,71.54
2018-02-17T23:40:05.418Z,71.95
2018-02-17T23:42:35.975Z,71.66
2018-02-17T23:45:07.381Z,71.89
2018-02-17T23:47:36.703Z,71.86
2018-02-17T23:50:07.000Z,71.79
2018-02-17T23:52:36.596Z,71.92
2018-02-17T23:55:05.919Z,72.04
2018-02-17T23:57:36.484Z,72.23
